createdAt,value
2018-06-17T00:00:21.562Z,22.10
2018-06-17T00:01:21.561Z,17.80
2018-06-17T00:02:21.574Z,17.30
2018-06-17T00:03:21.592Z,25.50
2018-06-17T00:04:21.567Z,23.80
2018-06-17T00:05:21.591Z,34.60
2018-06-17T00:06:21.621Z,20.80
2018-06-17T00:07:22.293Z,24.80
2018-06-17T00:08:21.583Z,24.80
2018-06-17T00:09:21.578Z,22.50
2018-06-17T00:10:21.580Z,44.00
2018-06-17T00:11:21.583Z,33.20
2018-06-17T00:12:21.639Z,34.50
2018-06-17T00:13:21.596Z,33.70
2018-06-17T00:14:21.590Z,16.20
2018-06-17T00:15:21.596Z,19.10
2018-06-17T00:16:21.597Z,29.70
2018-06-17T00:17:21.595Z,20.70
2018-06-17T00:18:21.616Z,15.30
2018-06-17T00:19:21.611Z,17.70
2018-06-17T00:20:21.809Z,17.30
2018-06-17T00:21:21.614Z,16.60
2018-06-17T00:22:21.848Z,15.80
2018-06-17T00:23:21.608Z,18.40
2018-06-17T00:24:21.648Z,22.70
2018-06-17T00:25:21.612Z,19.60
2018-06-17T00:26:21.612Z,31.10
2018-06-17T00:27:21.615Z,27.80
2018-06-17T00:28:21.628Z,26.80
2018-06-17T00:29:21.625Z,29.50
2018-06-17T00:30:21.623Z,31.40
2018-06-17T00:31:21.623Z,39.00
2018-06-17T00:32:21.623Z,34.10
2018-06-17T00:33:21.626Z,41.60
2018-06-17T00:34:21.627Z,27.90
2018-06-17T00:35:21.674Z,22.50
2018-06-17T00:36:21.631Z,24.40
2018-06-17T00:37:21.636Z,26.10
2018-06-17T00:38:21.971Z,33.90
2018-06-17T00:39:21.637Z,35.50
2018-06-17T00:40:21.640Z,29.30
2018-06-17T00:41:21.688Z,33.90
2018-06-17T00:42:22.749Z,36.40
2018-06-17T00:43:21.651Z,35.10
2018-06-17T00:44:21.644Z,17.20
2018-06-17T00:45:21.655Z,16.60
2018-06-17T00:46:21.649Z,22.30
2018-06-17T00:47:22.652Z,19.50
2018-06-17T00:48:21.652Z,24.60
2018-06-17T00:49:21.656Z,14.50
2018-06-17T00:50:21.657Z,45.30
2018-06-17T00:51:21.658Z,55.80
2018-06-17T00:52:21.661Z,29.90
2018-06-17T00:53:21.660Z,24.20
2018-06-17T00:54:21.666Z,30.60
2018-06-17T00:55:21.668Z,29.80
2018-06-17T00:56:21.665Z,51.30
2018-06-17T00:57:22.675Z,26.60
2018-06-17T00:58:22.666Z,26.60
2018-06-17T00:59:21.671Z,25.60
2018-06-17T01:00:21.672Z,30.60
2018-06-17T01:01:21.673Z,31.90
2018-06-17T01:02:21.679Z,26.00
2018-06-17T01:03:21.688Z,35.40
2018-06-17T01:04:21.678Z,24.30
2018-06-17T01:05:21.680Z,19.70
2018-06-17T01:06:21.682Z,26.70
2018-06-17T01:07:21.687Z,19.00
2018-06-17T01:08:21.691Z,23.80
2018-06-17T01:09:21.687Z,31.30
2018-06-17T01:10:21.694Z,30.40
2018-06-17T01:11:21.703Z,36.10
2018-06-17T01:12:21.691Z,31.50
2018-06-17T01:13:21.891Z,23.40
2018-06-17T01:14:21.699Z,18.00
2018-06-17T01:15:21.701Z,20.80
2018-06-17T01:16:21.699Z,22.70
2018-06-17T01:17:21.701Z,17.70
2018-06-17T01:18:21.754Z,20.20
2018-06-17T01:19:21.705Z,20.10
2018-06-17T01:20:21.705Z,18.30
2018-06-17T01:21:21.705Z,71.40
2018-06-17T01:22:21.709Z,15.60
2018-06-17T01:23:21.710Z,27.40
2018-06-17T01:24:21.709Z,33.50
2018-06-17T01:25:21.827Z,40.90
2018-06-17T01:26:21.718Z,20.20
2018-06-17T01:27:21.731Z,39.00
2018-06-17T01:28:21.727Z,37.70
2018-06-17T01:29:21.718Z,31.10
2018-06-17T01:30:21.724Z,30.30
2018-06-17T01:31:21.724Z,33.20
2018-06-17T01:32:21.880Z,18.00
2018-06-17T01:33:21.726Z,26.80
2018-06-17T01:34:21.726Z,21.80
2018-06-17T01:35:21.733Z,24.10
2018-06-17T01:36:21.747Z,16.70
2018-06-17T01:37:21.736Z,49.40
2018-06-17T01:38:21.758Z,40.00
2018-06-17T01:39:21.734Z,31.80
2018-06-17T01:40:21.737Z,20.20
2018-06-17T01:41:21.740Z,17.60
2018-06-17T01:42:21.747Z,16.60
2018-06-17T01:44:22.332Z,21.10
2018-06-17T01:45:43.413Z,15.90
2018-06-17T01:46:22.325Z,17.90
2018-06-17T01:47:22.320Z,15.80
2018-06-17T01:49:55.023Z,17.70
2018-06-17T01:52:08.612Z,16.90
2018-06-17T01:54:22.353Z,15.10
2018-06-17T01:56:36.439Z,23.40
2018-06-17T01:58:49.860Z,15.60
2018-06-17T02:01:03.593Z,16.90
2018-06-17T02:03:17.784Z,14.00
2018-06-17T02:05:31.181Z,15.40
2018-06-17T02:07:44.810Z,27.00
2018-06-17T02:09:58.545Z,19.30
2018-06-17T02:12:12.330Z,17.00
2018-06-17T02:14:26.024Z,20.90
2018-06-17T02:15:26.020Z,17.20
2018-06-17T02:17:20.459Z,17.00
2018-06-17T02:18:20.398Z,17.00
2018-06-17T02:20:14.816Z,17.10
2018-06-17T02:21:14.780Z,17.30
2018-06-17T02:23:09.264Z,17.50
2018-06-17T02:24:09.151Z,16.00
2018-06-17T02:26:03.611Z,16.70
2018-06-17T02:27:03.528Z,16.60
2018-06-17T02:28:57.957Z,16.50
2018-06-17T02:29:57.905Z,15.60
2018-06-17T02:31:52.391Z,17.10
2018-06-17T02:32:52.291Z,16.80
2018-06-17T02:34:46.672Z,17.20
2018-06-17T02:35:46.667Z,16.80
2018-06-17T02:37:41.114Z,17.70
2018-06-17T02:38:41.044Z,17.50
2018-06-17T02:40:35.424Z,16.90
2018-06-17T02:41:35.422Z,17.10
2018-06-17T02:43:29.880Z,17.20
2018-06-17T02:44:29.789Z,17.70
2018-06-17T02:46:24.239Z,19.20
2018-06-17T02:47:24.168Z,18.60
2018-06-17T02:49:18.622Z,19.30
2018-06-17T02:50:18.558Z,19.10
2018-06-17T02:52:12.982Z,22.50
2018-06-17T02:53:12.936Z,19.30
2018-06-17T02:55:07.318Z,18.50
2018-06-17T02:56:07.315Z,17.50
2018-06-17T02:58:01.799Z,17.70
2018-06-17T02:59:01.691Z,16.60
2018-06-17T03:00:56.077Z,17.50
2018-06-17T03:01:56.074Z,16.90
2018-06-17T03:03:50.625Z,17.10
2018-06-17T03:04:50.443Z,17.30
2018-06-17T03:06:44.893Z,17.50
2018-06-17T03:07:44.823Z,16.80
2018-06-17T03:09:39.219Z,17.90
2018-06-17T03:10:39.216Z,17.80
2018-06-17T03:12:33.893Z,18.20
2018-06-17T03:13:33.584Z,18.30
2018-06-17T03:15:27.965Z,19.50
2018-06-17T03:16:27.959Z,19.80
2018-06-17T03:18:38.455Z,18.00
2018-06-17T03:19:22.328Z,17.80
2018-06-17T03:21:16.797Z,18.20
2018-06-17T03:22:16.710Z,18.20
2018-06-17T03:24:11.232Z,17.80
2018-06-17T03:25:11.090Z,19.00
2018-06-17T03:27:05.487Z,18.00
2018-06-17T03:28:05.486Z,17.50
2018-06-17T03:29:59.917Z,17.30
2018-06-17T03:30:59.867Z,17.60
2018-06-17T03:32:54.304Z,17.40
2018-06-17T03:33:54.344Z,17.40
2018-06-17T03:35:48.613Z,17.50
2018-06-17T03:36:48.611Z,17.70
2018-06-17T03:38:43.050Z,17.70
2018-06-17T03:39:42.986Z,16.80
2018-06-17T03:41:37.368Z,17.30
2018-06-17T03:42:37.370Z,16.50
2018-06-17T03:44:32.122Z,16.10
2018-06-17T03:45:31.738Z,15.30
2018-06-17T03:47:26.110Z,16.80
2018-06-17T03:48:26.103Z,17.50
2018-06-17T03:50:20.543Z,17.00
2018-06-17T03:51:20.481Z,17.00
2018-06-17T03:53:14.877Z,17.70
2018-06-17T03:54:14.881Z,18.10
2018-06-17T03:56:09.329Z,18.10
2018-06-17T03:57:09.266Z,17.90
2018-06-17T03:59:03.638Z,17.70
2018-06-17T04:00:03.636Z,18.90
2018-06-17T04:01:58.130Z,16.70
2018-06-17T04:02:58.016Z,16.70
2018-06-17T04:04:52.392Z,18.10
2018-06-17T04:05:52.393Z,17.70
2018-06-17T04:07:46.809Z,17.60
2018-06-17T04:08:46.763Z,17.40
2018-06-17T04:10:41.199Z,19.70
2018-06-17T04:11:41.143Z,19.80
2018-06-17T04:13:35.624Z,18.00
2018-06-17T04:14:35.530Z,18.70
2018-06-17T04:16:29.963Z,16.90
2018-06-17T04:17:29.909Z,16.80
2018-06-17T04:19:24.904Z,17.10
2018-06-17T04:20:24.302Z,17.10
2018-06-17T04:22:18.662Z,18.50
2018-06-17T04:23:18.659Z,17.50
2018-06-17T04:25:13.228Z,18.40
2018-06-17T04:26:13.036Z,18.20
2018-06-17T04:28:07.424Z,18.50
2018-06-17T04:29:07.421Z,18.70
2018-06-17T04:31:01.914Z,19.20
2018-06-17T04:32:01.798Z,19.50
2018-06-17T04:33:56.253Z,19.60
2018-06-17T04:34:56.193Z,18.30
2018-06-17T04:36:50.567Z,17.70
2018-06-17T04:37:50.563Z,18.90
2018-06-17T04:39:45.052Z,18.30
2018-06-17T04:40:44.945Z,18.30
2018-06-17T04:42:39.325Z,18.70
2018-06-17T04:43:39.326Z,18.10
2018-06-17T04:45:33.982Z,18.10
2018-06-17T04:46:33.707Z,17.40
2018-06-17T04:48:28.121Z,17.50
2018-06-17T04:49:28.097Z,17.30
2018-06-17T04:51:22.526Z,19.50
2018-06-17T04:52:22.459Z,18.80
2018-06-17T04:54:16.843Z,19.40
2018-06-17T04:55:16.840Z,18.70
2018-06-17T04:57:11.341Z,17.80
2018-06-17T04:58:11.220Z,18.00
2018-06-17T05:00:05.669Z,17.60
2018-06-17T05:01:05.598Z,17.20
2018-06-17T05:03:00.037Z,19.60
2018-06-17T05:03:59.977Z,19.90
2018-06-17T05:05:55.215Z,19.20
2018-06-17T05:06:55.208Z,19.60
2018-06-17T05:08:49.706Z,18.90
2018-06-17T05:09:49.595Z,18.40
2018-06-17T05:11:44.017Z,17.00
2018-06-17T05:12:43.974Z,16.20
2018-06-17T05:14:38.355Z,17.10
2018-06-17T05:15:38.355Z,17.90
2018-06-17T05:17:32.784Z,16.70
2018-06-17T05:18:32.737Z,16.60
2018-06-17T05:20:27.185Z,17.40
2018-06-17T05:21:27.123Z,17.90
2018-06-17T05:23:21.497Z,17.80
2018-06-17T05:24:21.503Z,17.50
2018-06-17T05:26:15.981Z,16.50
2018-06-17T05:27:15.874Z,16.60
2018-06-17T05:29:10.310Z,15.60
2018-06-17T05:30:10.255Z,15.70
2018-06-17T05:32:04.640Z,15.60
2018-06-17T05:33:04.642Z,15.20
2018-06-17T05:34:59.415Z,15.20
2018-06-17T05:35:59.040Z,15.50
2018-06-17T05:37:53.451Z,15.20
2018-06-17T05:38:53.406Z,16.30
2018-06-17T05:40:47.899Z,16.30
2018-06-17T05:41:47.846Z,15.70
2018-06-17T05:43:42.201Z,16.60
2018-06-17T05:44:42.188Z,16.60
2018-06-17T05:46:36.617Z,15.60
2018-06-17T05:47:36.616Z,16.30
2018-06-17T05:49:30.967Z,15.70
2018-06-17T05:50:30.964Z,16.50
2018-06-17T05:52:25.395Z,15.90
2018-06-17T05:53:25.401Z,16.90
2018-06-17T05:55:19.838Z,16.50
2018-06-17T05:56:19.742Z,17.00
2018-06-17T05:58:14.121Z,16.60
2018-06-17T05:59:14.127Z,16.10
2018-06-17T06:01:08.611Z,16.00
2018-06-17T06:02:08.506Z,15.50
2018-06-17T06:04:03.002Z,16.00
2018-06-17T06:05:02.890Z,15.50
2018-06-17T06:06:57.349Z,15.10
2018-06-17T06:07:57.291Z,15.40
2018-06-17T06:09:52.529Z,15.30
2018-06-17T06:10:51.705Z,16.50
2018-06-17T06:12:46.208Z,16.10
2018-06-17T06:13:46.101Z,14.80
2018-06-17T06:15:40.540Z,14.50
2018-06-17T06:16:40.487Z,14.80
2018-06-17T06:18:34.866Z,14.40
2018-06-17T06:19:34.871Z,13.80
2018-06-17T06:21:29.300Z,13.80
2018-06-17T06:22:29.243Z,13.90
2018-06-17T06:24:23.633Z,13.10
2018-06-17T06:25:23.632Z,13.30
2018-06-17T06:27:18.067Z,10.40
2018-06-17T06:28:18.008Z,8.80
2018-06-17T06:30:12.395Z,7.10
2018-06-17T06:31:12.394Z,7.00
2018-06-17T06:33:06.913Z,6.40
2018-06-17T06:34:06.793Z,6.90
2018-06-17T06:36:01.179Z,7.00
2018-06-17T06:37:01.182Z,6.70
2018-06-17T06:38:55.642Z,6.10
2018-06-17T06:39:55.571Z,6.20
2018-06-17T06:41:49.962Z,8.00
2018-06-17T06:42:49.963Z,6.40
2018-06-17T06:44:44.407Z,9.40
2018-06-17T06:45:44.358Z,7.10
2018-06-17T06:47:38.737Z,5.90
2018-06-17T06:48:38.742Z,5.50
2018-06-17T06:50:33.805Z,5.60
2018-06-17T06:51:33.129Z,5.90
2018-06-17T06:53:27.561Z,5.00
2018-06-17T06:54:27.511Z,5.50
2018-06-17T06:56:22.198Z,5.60
2018-06-17T06:57:21.902Z,5.80
2018-06-17T06:59:16.292Z,5.50
2018-06-17T07:00:16.287Z,5.40
2018-06-17T07:02:10.712Z,5.70
2018-06-17T07:03:10.719Z,5.80
2018-06-17T07:05:05.113Z,5.90
2018-06-17T07:06:05.061Z,5.40
2018-06-17T07:07:59.444Z,5.00
2018-06-17T07:08:59.453Z,5.70
2018-06-17T07:10:53.945Z,6.00
2018-06-17T07:11:53.845Z,6.10
2018-06-17T07:13:48.230Z,6.20
2018-06-17T07:14:48.232Z,6.40
2018-06-17T07:16:42.716Z,6.70
2018-06-17T07:17:42.604Z,6.40
2018-06-17T07:19:36.998Z,6.40
2018-06-17T07:20:36.994Z,6.60
2018-06-17T07:22:31.425Z,6.10
2018-06-17T07:23:31.383Z,6.30
2018-06-17T07:25:25.767Z,6.80
2018-06-17T07:26:25.766Z,6.40
2018-06-17T07:28:20.276Z,6.30
2018-06-17T07:29:20.171Z,6.60
2018-06-17T07:31:14.541Z,6.10
2018-06-17T07:32:14.540Z,6.20
2018-06-17T07:34:08.962Z,7.40
2018-06-17T07:35:08.928Z,6.60
2018-06-17T07:37:03.378Z,6.90
2018-06-17T07:38:03.313Z,6.70
2018-06-17T07:39:57.703Z,6.30
2018-06-17T07:40:57.705Z,6.70
2018-06-17T07:42:52.197Z,7.10
2018-06-17T07:43:52.167Z,6.70
2018-06-17T07:45:46.483Z,8.00
2018-06-17T07:46:46.483Z,8.10
2018-06-17T07:48:40.975Z,7.90
2018-06-17T07:49:40.870Z,7.00
2018-06-17T07:51:35.364Z,7.00
2018-06-17T07:52:35.248Z,6.90
2018-06-17T07:54:29.639Z,7.40
2018-06-17T07:55:29.645Z,7.80
2018-06-17T07:57:24.668Z,7.90
2018-06-17T07:58:24.033Z,7.60
2018-06-17T08:00:18.463Z,7.70
2018-06-17T08:01:18.416Z,8.00
2018-06-17T08:03:12.800Z,7.30
2018-06-17T08:04:12.806Z,7.90
2018-06-17T08:06:07.251Z,8.20
2018-06-17T08:07:07.191Z,8.10
2018-06-17T08:09:01.583Z,7.20
2018-06-17T08:10:01.582Z,7.80
2018-06-17T08:11:56.370Z,8.40
2018-06-17T08:12:55.965Z,7.50
2018-06-17T08:14:50.402Z,7.00
2018-06-17T08:15:50.376Z,7.20
2018-06-17T08:17:44.787Z,7.00
2018-06-17T08:18:44.751Z,7.40
2018-06-17T08:20:39.186Z,6.80
2018-06-17T08:21:39.119Z,6.60
2018-06-17T08:23:33.508Z,7.00
2018-06-17T08:24:33.506Z,6.90
2018-06-17T08:26:28.137Z,6.70
2018-06-17T08:27:27.904Z,6.40
2018-06-17T08:29:22.497Z,7.50
2018-06-17T08:30:22.282Z,6.60
2018-06-17T08:32:16.682Z,7.20
2018-06-17T08:33:16.764Z,8.20
2018-06-17T08:35:11.373Z,9.40
2018-06-17T08:36:11.071Z,9.30
2018-06-17T08:38:05.576Z,8.90
2018-06-17T08:39:05.480Z,8.10
2018-06-17T08:40:59.868Z,9.30
2018-06-17T08:41:59.869Z,9.00
2018-06-17T08:43:54.347Z,8.80
2018-06-17T08:44:54.257Z,9.00
2018-06-17T08:46:48.692Z,10.70
2018-06-17T08:47:48.660Z,10.90
2018-06-17T08:49:43.144Z,9.60
2018-06-17T08:50:43.044Z,9.70
2018-06-17T08:52:37.486Z,10.00
2018-06-17T08:53:37.429Z,9.90
2018-06-17T08:55:31.817Z,9.50
2018-06-17T08:56:31.819Z,9.20
2018-06-17T08:58:27.691Z,11.00
2018-06-17T08:59:26.209Z,11.60
2018-06-17T09:01:20.596Z,11.80
2018-06-17T09:02:20.600Z,11.70
2018-06-17T09:04:15.030Z,10.50
2018-06-17T09:05:14.997Z,10.10
2018-06-17T09:07:09.602Z,9.80
2018-06-17T09:08:09.392Z,10.30
2018-06-17T09:10:03.768Z,10.10
2018-06-17T09:11:03.770Z,9.80
2018-06-17T09:12:58.263Z,9.10
2018-06-17T09:13:58.197Z,8.80
2018-06-17T09:15:52.550Z,8.00
2018-06-17T09:16:52.552Z,8.10
2018-06-17T09:18:47.007Z,7.20
2018-06-17T09:19:46.955Z,7.60
2018-06-17T09:21:41.333Z,8.10
2018-06-17T09:22:41.335Z,8.40
2018-06-17T09:24:35.828Z,7.90
2018-06-17T09:25:35.721Z,8.40
2018-06-17T09:27:30.122Z,8.30
2018-06-17T09:28:30.110Z,8.10
2018-06-17T09:30:24.768Z,8.20
2018-06-17T09:31:24.564Z,8.30
2018-06-17T09:33:18.882Z,9.00
2018-06-17T09:34:18.884Z,9.00
2018-06-17T09:36:13.313Z,9.70
2018-06-17T09:37:13.274Z,9.50
2018-06-17T09:39:07.648Z,9.20
2018-06-17T09:40:07.648Z,9.80
2018-06-17T09:42:02.269Z,9.60
2018-06-17T09:43:02.055Z,9.80
2018-06-17T09:44:56.501Z,9.30
2018-06-17T09:45:56.452Z,9.20
2018-06-17T09:47:50.914Z,8.80
2018-06-17T09:48:50.844Z,9.30
2018-06-17T09:50:49.867Z,9.50
2018-06-17T09:51:49.858Z,9.60
2018-06-17T09:53:44.293Z,11.40
2018-06-17T09:54:44.248Z,11.10
2018-06-17T09:56:38.637Z,11.80
2018-06-17T09:57:38.639Z,11.70
2018-06-17T09:59:33.130Z,10.60
2018-06-17T10:00:33.040Z,10.90
2018-06-17T10:02:27.524Z,10.50
2018-06-17T10:03:27.510Z,11.00
2018-06-17T10:05:21.880Z,10.90
2018-06-17T10:06:21.818Z,10.80
2018-06-17T10:08:16.204Z,10.40
2018-06-17T10:09:16.210Z,11.00
2018-06-17T10:11:10.639Z,11.60
2018-06-17T10:12:10.593Z,10.70
2018-06-17T10:14:05.050Z,10.40
2018-06-17T10:15:04.988Z,10.10
2018-06-17T10:16:59.371Z,10.60
2018-06-17T10:17:59.400Z,11.30
2018-06-17T10:19:54.128Z,10.90
2018-06-17T10:20:53.767Z,11.00
2018-06-17T10:22:48.144Z,11.10
2018-06-17T10:23:48.146Z,11.70
2018-06-17T10:25:42.596Z,10.50
2018-06-17T10:26:42.535Z,10.50
2018-06-17T10:28:36.926Z,11.70
2018-06-17T10:29:36.938Z,12.60
2018-06-17T10:31:31.604Z,12.20
2018-06-17T10:32:31.317Z,11.60
2018-06-17T10:34:25.699Z,11.60
2018-06-17T10:35:25.702Z,11.10
2018-06-17T10:37:20.203Z,10.80
2018-06-17T10:38:20.097Z,10.30
2018-06-17T10:40:14.525Z,9.10
2018-06-17T10:41:14.478Z,9.60
2018-06-17T10:43:08.874Z,8.30
2018-06-17T10:44:08.877Z,9.00
2018-06-17T10:46:03.543Z,8.20
2018-06-17T10:47:03.271Z,8.20
2018-06-17T10:48:57.757Z,7.60
2018-06-17T10:49:57.677Z,7.80
2018-06-17T10:51:52.098Z,9.20
2018-06-17T10:52:52.092Z,8.70
2018-06-17T10:54:46.577Z,8.30
2018-06-17T10:55:46.558Z,8.80
2018-06-17T10:57:40.904Z,8.10
2018-06-17T10:58:40.873Z,7.90
2018-06-17T11:00:39.974Z,7.30
2018-06-17T11:01:39.860Z,9.40
2018-06-17T11:03:34.258Z,8.20
2018-06-17T11:04:34.263Z,8.40
2018-06-17T11:06:28.707Z,7.60
2018-06-17T11:07:28.673Z,7.50
2018-06-17T11:09:23.134Z,7.70
2018-06-17T11:10:23.177Z,7.80
2018-06-17T11:12:17.475Z,7.30
2018-06-17T11:13:17.612Z,7.60
2018-06-17T11:15:11.937Z,6.60
2018-06-17T11:16:11.899Z,6.40
2018-06-17T11:18:06.329Z,7.80
2018-06-17T11:19:06.311Z,7.80
2018-06-17T11:21:00.816Z,9.00
2018-06-17T11:22:00.726Z,8.60
2018-06-17T11:23:55.188Z,8.60
2018-06-17T11:24:55.135Z,8.90
2018-06-17T11:26:49.537Z,8.30
2018-06-17T11:27:49.541Z,7.40
2018-06-17T11:29:44.007Z,8.10
2018-06-17T11:30:43.944Z,7.40
2018-06-17T11:32:38.341Z,7.60
2018-06-17T11:33:38.351Z,8.00
2018-06-17T11:35:32.824Z,7.70
2018-06-17T11:36:32.763Z,8.30
2018-06-17T11:38:27.170Z,7.50
2018-06-17T11:39:27.173Z,7.00
2018-06-17T11:41:21.711Z,7.30
2018-06-17T11:42:21.573Z,7.70
2018-06-17T11:44:16.012Z,6.90
2018-06-17T11:45:15.976Z,6.70
2018-06-17T11:47:10.483Z,7.20
2018-06-17T11:48:10.390Z,6.40
2018-06-17T11:50:04.824Z,6.20
2018-06-17T11:51:04.788Z,5.70
2018-06-17T11:52:59.242Z,6.10
2018-06-17T11:53:59.286Z,5.50
2018-06-17T11:55:53.587Z,6.10
2018-06-17T11:56:53.593Z,5.80
2018-06-17T11:58:48.095Z,7.20
2018-06-17T11:59:48.030Z,7.70
2018-06-17T12:01:42.391Z,6.20
2018-06-17T12:02:42.400Z,5.70
2018-06-17T12:04:36.852Z,5.40
2018-06-17T12:05:36.810Z,5.40
2018-06-17T12:07:33.681Z,6.40
2018-06-17T12:08:33.196Z,6.10
2018-06-17T12:09:33.212Z,5.90
2018-06-17T12:10:33.216Z,6.30
2018-06-17T12:11:33.228Z,5.30
2018-06-17T12:12:33.238Z,5.20
2018-06-17T12:13:33.246Z,4.90
2018-06-17T12:14:33.258Z,5.10
2018-06-17T12:15:33.270Z,5.20
2018-06-17T12:16:33.281Z,5.40
2018-06-17T12:17:33.290Z,4.90
2018-06-17T12:18:33.304Z,5.00
2018-06-17T12:19:33.312Z,4.50
2018-06-17T12:20:33.323Z,4.50
2018-06-17T12:21:33.334Z,4.70
2018-06-17T12:22:33.345Z,4.90
2018-06-17T12:23:33.361Z,5.20
2018-06-17T12:24:33.379Z,5.30
2018-06-17T12:25:33.380Z,5.30
2018-06-17T12:26:33.390Z,5.60
2018-06-17T12:27:33.407Z,5.90
2018-06-17T12:28:33.411Z,4.80
2018-06-17T12:29:33.431Z,5.70
2018-06-17T12:30:33.432Z,5.40
2018-06-17T12:31:33.443Z,5.70
2018-06-17T12:32:33.454Z,4.90
2018-06-17T12:33:33.482Z,4.30
2018-06-17T12:34:33.478Z,4.30
2018-06-17T12:35:33.488Z,5.00
2018-06-17T12:36:33.494Z,4.50
2018-06-17T12:37:33.503Z,4.40
2018-06-17T12:38:33.514Z,4.80
2018-06-17T12:39:33.524Z,4.70
2018-06-17T12:40:33.534Z,4.20
2018-06-17T12:41:33.543Z,5.50
2018-06-17T12:42:33.556Z,4.20
2018-06-17T12:43:33.564Z,5.40
2018-06-17T12:44:33.578Z,4.60
2018-06-17T12:45:33.587Z,4.90
2018-06-17T12:46:33.600Z,4.50
2018-06-17T12:47:33.612Z,4.30
2018-06-17T12:48:33.617Z,4.60
2018-06-17T12:49:33.631Z,4.80
2018-06-17T12:50:33.708Z,4.90
2018-06-17T12:51:33.659Z,4.40
2018-06-17T12:52:33.662Z,4.40
2018-06-17T12:53:33.674Z,4.40
2018-06-17T12:54:33.690Z,4.50
2018-06-17T12:55:33.698Z,4.20
2018-06-17T12:56:33.732Z,4.00
2018-06-17T12:57:33.726Z,5.00
2018-06-17T12:58:33.735Z,4.80
2018-06-17T12:59:33.746Z,4.10
2018-06-17T13:00:33.758Z,4.70
2018-06-17T13:01:33.822Z,4.40
2018-06-17T13:02:33.786Z,4.50
2018-06-17T13:03:33.795Z,4.50
2018-06-17T13:04:33.844Z,4.20
2018-06-17T13:05:33.815Z,4.70
2018-06-17T13:06:33.826Z,4.50
2018-06-17T13:07:33.840Z,4.90
2018-06-17T13:08:33.847Z,4.70
2018-06-17T13:09:33.861Z,5.00
2018-06-17T13:10:33.871Z,4.70
2018-06-17T13:11:33.877Z,5.20
2018-06-17T13:12:33.896Z,4.60
2018-06-17T13:13:33.897Z,4.70
2018-06-17T13:14:33.907Z,4.60
2018-06-17T13:15:33.917Z,4.80
2018-06-17T13:16:33.935Z,4.80
2018-06-17T13:17:33.934Z,5.30
2018-06-17T13:18:33.943Z,4.80
2018-06-17T13:19:33.956Z,4.60
2018-06-17T13:20:33.961Z,4.20
2018-06-17T13:21:33.971Z,4.30
2018-06-17T13:22:33.978Z,4.80
2018-06-17T13:23:33.992Z,5.30
2018-06-17T13:24:33.997Z,4.70
2018-06-17T13:25:34.006Z,4.30
2018-06-17T13:26:34.013Z,4.40
2018-06-17T13:27:34.023Z,4.50
2018-06-17T13:28:34.030Z,4.10
2018-06-17T13:29:34.038Z,4.10
2018-06-17T13:30:34.050Z,4.10
2018-06-17T13:31:34.073Z,3.80
2018-06-17T13:32:34.067Z,3.80
2018-06-17T13:33:34.075Z,3.80
2018-06-17T13:34:34.085Z,3.80
2018-06-17T13:35:34.108Z,3.50
2018-06-17T13:36:34.105Z,4.10
2018-06-17T13:37:34.114Z,3.50
2018-06-17T13:38:34.126Z,3.00
2018-06-17T13:39:34.137Z,3.20
2018-06-17T13:40:34.148Z,3.10
2018-06-17T13:41:34.160Z,3.60
2018-06-17T13:42:34.171Z,3.10
2018-06-17T13:43:34.186Z,3.00
2018-06-17T13:44:34.197Z,3.20
2018-06-17T13:45:34.205Z,3.30
2018-06-17T13:46:34.216Z,2.90
2018-06-17T13:47:34.226Z,3.00
2018-06-17T13:48:34.237Z,2.80
2018-06-17T13:49:34.247Z,2.90
2018-06-17T13:50:34.259Z,3.40
2018-06-17T13:51:34.274Z,2.90
2018-06-17T13:52:34.288Z,3.30
2018-06-17T13:53:34.290Z,3.20
2018-06-17T13:54:34.303Z,3.00
2018-06-17T13:55:34.311Z,2.70
2018-06-17T13:56:34.325Z,2.80
2018-06-17T13:57:34.332Z,3.00
2018-06-17T13:58:34.343Z,2.50
2018-06-17T13:59:34.352Z,2.70
2018-06-17T14:00:34.362Z,2.60
2018-06-17T14:01:34.372Z,2.60
2018-06-17T14:02:34.383Z,2.30
2018-06-17T14:03:34.396Z,2.80
2018-06-17T14:04:34.404Z,2.30
2018-06-17T14:05:34.417Z,2.10
2018-06-17T14:06:34.428Z,2.60
2018-06-17T14:07:35.285Z,2.00
2018-06-17T14:08:35.738Z,2.60
2018-06-17T14:09:34.645Z,2.20
2018-06-17T14:10:34.564Z,2.40
2018-06-17T14:11:34.481Z,2.20
2018-06-17T14:12:34.950Z,2.10
2018-06-17T14:13:34.689Z,2.50
2018-06-17T14:14:34.514Z,2.20
2018-06-17T14:15:34.524Z,2.20
2018-06-17T14:16:34.533Z,2.80
2018-06-17T14:17:34.549Z,2.40
2018-06-17T14:18:34.554Z,3.10
2018-06-17T14:19:34.567Z,2.50
2018-06-17T14:20:34.574Z,1.90
2018-06-17T14:21:34.589Z,2.40
2018-06-17T14:22:34.597Z,2.00
2018-06-17T14:23:34.619Z,2.40
2018-06-17T14:24:34.615Z,2.30
2018-06-17T14:25:34.677Z,2.00
2018-06-17T14:26:34.638Z,2.30
2018-06-17T14:27:34.648Z,2.20
2018-06-17T14:28:34.659Z,2.00
2018-06-17T14:29:34.670Z,3.60
2018-06-17T14:30:34.678Z,3.40
2018-06-17T14:31:34.690Z,2.20
2018-06-17T14:32:34.701Z,2.50
2018-06-17T14:33:34.718Z,3.10
2018-06-17T14:34:34.726Z,4.30
2018-06-17T14:35:34.733Z,3.80
2018-06-17T14:36:34.744Z,2.00
2018-06-17T14:37:34.753Z,2.40
2018-06-17T14:38:34.764Z,4.80
2018-06-17T14:39:34.776Z,5.20
2018-06-17T14:40:34.783Z,6.00
2018-06-17T14:41:34.794Z,4.60
2018-06-17T14:42:34.804Z,4.30
2018-06-17T14:43:34.828Z,4.80
2018-06-17T14:44:34.830Z,2.90
2018-06-17T14:45:34.833Z,2.00
2018-06-17T14:46:34.844Z,2.40
2018-06-17T14:47:34.853Z,2.30
2018-06-17T14:48:34.860Z,2.70
2018-06-17T14:49:34.872Z,2.90
2018-06-17T14:50:34.880Z,2.30
2018-06-17T14:51:34.891Z,2.10
2018-06-17T14:52:34.898Z,1.80
2018-06-17T14:53:34.905Z,1.90
2018-06-17T14:54:34.917Z,2.10
2018-06-17T14:55:34.925Z,2.10
2018-06-17T14:56:34.932Z,1.80
2018-06-17T14:57:34.941Z,2.40
2018-06-17T14:58:34.949Z,2.10
2018-06-17T14:59:34.960Z,1.80
2018-06-17T15:00:34.966Z,2.40
2018-06-17T15:01:34.980Z,2.00
2018-06-17T15:02:34.981Z,1.80
2018-06-17T15:03:35.027Z,2.30
2018-06-17T15:04:34.996Z,4.70
2018-06-17T15:05:35.006Z,4.30
2018-06-17T15:06:35.012Z,4.20
2018-06-17T15:07:35.045Z,3.30
2018-06-17T15:08:35.085Z,2.10
2018-06-17T15:09:35.073Z,1.90
2018-06-17T15:10:35.092Z,2.30
2018-06-17T15:11:35.055Z,2.00
2018-06-17T15:12:35.073Z,2.00
2018-06-17T15:13:35.064Z,2.50
2018-06-17T15:14:35.072Z,2.60
2018-06-17T15:15:35.080Z,2.00
2018-06-17T15:16:35.087Z,1.70
2018-06-17T15:17:35.098Z,1.80
2018-06-17T15:18:35.101Z,2.20
2018-06-17T15:19:35.108Z,2.20
2018-06-17T15:20:35.115Z,2.50
2018-06-17T15:21:35.129Z,2.70
2018-06-17T15:22:35.161Z,2.40
2018-06-17T15:23:35.144Z,2.10
2018-06-17T15:24:35.145Z,2.40
2018-06-17T15:25:35.148Z,2.30
2018-06-17T15:26:35.157Z,2.00
2018-06-17T15:27:35.163Z,2.20
2018-06-17T15:28:35.169Z,1.90
2018-06-17T15:29:35.175Z,1.90
2018-06-17T15:30:35.184Z,2.30
2018-06-17T15:31:35.189Z,2.30
2018-06-17T15:32:35.196Z,3.20
2018-06-17T15:33:35.202Z,2.40
2018-06-17T15:34:35.210Z,1.90
2018-06-17T15:35:35.217Z,3.10
2018-06-17T15:36:35.226Z,2.70
2018-06-17T15:37:35.236Z,2.20
2018-06-17T15:38:35.236Z,1.70
2018-06-17T15:39:35.246Z,2.60
2018-06-17T15:40:35.251Z,1.90
2018-06-17T15:41:35.274Z,1.90
2018-06-17T15:42:35.269Z,2.00
2018-06-17T15:43:35.270Z,1.60
2018-06-17T15:44:35.278Z,1.80
2018-06-17T15:45:35.298Z,2.30
2018-06-17T15:46:35.291Z,2.80
2018-06-17T15:47:35.296Z,3.80
2018-06-17T15:48:35.305Z,2.90
2018-06-17T15:49:35.308Z,2.70
2018-06-17T15:50:35.375Z,1.70
2018-06-17T15:51:35.323Z,1.50
2018-06-17T15:52:35.354Z,2.80
2018-06-17T15:53:35.360Z,2.30
2018-06-17T15:54:35.340Z,5.20
2018-06-17T15:55:35.350Z,4.40
2018-06-17T15:56:35.353Z,3.10
2018-06-17T15:57:35.362Z,4.30
2018-06-17T15:58:35.420Z,3.60
2018-06-17T15:59:35.471Z,2.60
2018-06-17T16:00:35.468Z,1.60
2018-06-17T16:01:35.480Z,1.60
2018-06-17T16:02:35.492Z,1.40
2018-06-17T16:03:35.495Z,1.90
2018-06-17T16:04:35.468Z,1.60
2018-06-17T16:05:35.527Z,1.90
2018-06-17T16:06:35.423Z,1.70
2018-06-17T16:07:35.423Z,2.10
2018-06-17T16:08:35.434Z,1.60
2018-06-17T16:09:35.488Z,2.50
2018-06-17T16:10:35.442Z,2.40
2018-06-17T16:11:35.478Z,1.30
2018-06-17T16:12:35.469Z,1.30
2018-06-17T16:13:35.461Z,1.50
2018-06-17T16:14:35.471Z,2.40
2018-06-17T16:15:35.474Z,1.30
2018-06-17T16:16:35.479Z,1.60
2018-06-17T16:17:35.493Z,1.40
2018-06-17T16:18:35.497Z,1.60
2018-06-17T16:19:35.513Z,1.50
2018-06-17T16:20:35.507Z,1.70
2018-06-17T16:21:35.515Z,2.00
2018-06-17T16:22:35.517Z,1.10
2018-06-17T16:23:35.529Z,2.10
2018-06-17T16:24:35.530Z,1.60
2018-06-17T16:25:35.539Z,1.90
2018-06-17T16:26:35.561Z,1.50
2018-06-17T16:27:35.549Z,1.30
2018-06-17T16:28:35.556Z,2.00